Time;durP1;ratioP1;P1;durP2;ratioP2;P2;SDS_P1;SDS_P2;PMS_P1;PMS_P2;Temp;Humidity;BMP_temperature;BMP_pressure;BME280_temperature;BME280_humidity;BME280_pressure;Samples;Min_cycle;Max_cycle;Signal;HPM_P1;HPM_P2
2022/05/27 00:00:05;;;;;;;7.43;3.10;;;;;;;14.61;82.34;101801.81;171319;28;1086;-69
2022/05/27 00:00:12;;;;;;;6.97;3.12;;;;;;;14.64;81.85;101801.69;171327;28;1011;-69
2022/05/27 00:00:20;;;;;;;6.63;3.20;;;;;;;14.66;82.11;101805.13;171433;28;939;-69
2022/05/27 00:00:26;;;;;;;7.15;3.20;;;;;;;14.62;82.36;101792.19;171237;28;1244;-69
2022/05/27 00:00:31;;;;;;;6.83;3.17;;;;;;;14.53;82.54;101793.44;171325;28;915;-70
2022/05/27 00:00:41;;;;;;;6.93;3.08;;;;;;;14.54;82.40;101801.25;171364;28;844;-69
2022/05/27 00:00:48;;;;;;;7.05;2.94;;;;;;;14.54;82.58;101805.63;171328;28;1133;-70
2022/05/27 00:00:54;;;;;;;6.17;2.83;;;;;;;14.50;82.87;101804.94;171406;28;907;-70
2022/05/27 00:00:59;;;;;;;5.80;2.85;;;;;;;14.46;82.85;101808.59;171590;28;975;-70
2022/05/27 00:01:05;;;;;;;6.80;2.97;;;;;;;14.39;83.06;101802.78;172021;28;1006;-69
2022/05/27 00:01:13;;;;;;;6.13;2.85;;;;;;;14.41;83.05;101800.91;172037;28;1030;-69
2022/05/27 00:01:23;;;;;;;6.93;2.88;;;;;;;14.43;82.94;101795.59;172070;28;982;-69
2022/05/27 00:01:32;;;;;;;7.39;2.92;;;;;;;14.46;82.89;101797.25;171849;28;1440;-69
2022/05/27 00:01:37;;;;;;;7.39;3.00;;;;;;;14.50;82.58;101806.69;172000;28;1054;-68
2022/05/27 00:01:42;;;;;;;7.17;3.03;;;;;;;14.55;82.42;101802.09;172018;28;903;-69
2022/05/27 00:01:48;;;;;;;5.60;2.90;;;;;;;14.54;82.27;101803.00;172059;28;836;-69
2022/05/27 00:01:54;;;;;;;5.18;2.90;;;;;;;14.57;82.25;101800.25;172055;28;836;-70
2022/05/27 00:02:00;;;;;;;6.03;2.90;;;;;;;14.54;82.88;101806.50;172053;28;910;-69
2022/05/27 00:02:06;;;;;;;5.52;2.82;;;;;;;14.53;82.58;101796.91;172025;28;899;-69
2022/05/27 00:02:11;;;;;;;5.90;2.83;;;;;;;14.49;82.62;101797.13;171997;28;914;-70
2022/05/27 00:02:17;;;;;;;6.20;2.90;;;;;;;14.49;82.51;101797.97;172064;28;856;-69
2022/05/27 00:02:22;;;;;;;7.10;3.00;;;;;;;14.47;83.09;101804.22;172051;28;1026;-69
2022/05/27 00:02:31;;;;;;;6.70;3.00;;;;;;;14.50;82.64;101798.81;172059;28;848;-69
2022/05/27 00:02:36;;;;;;;7.29;3.00;;;;;;;14.50;82.84;101798.81;171955;28;1337;-69
2022/05/27 00:02:41;;;;;;;7.27;3.00;;;;;;;14.46;83.09;101797.25;172010;28;923;-69
2022/05/27 00:02:50;;;;;;;7.67;3.03;;;;;;;14.48;83.08;101803.28;171954;28;1099;-69
2022/05/27 00:02:55;;;;;;;7.53;3.09;;;;;;;14.44;83.00;101804.34;171994;28;1176;-69
2022/05/27 00:03:01;;;;;;;6.80;3.00;;;;;;;14.46;82.98;101802.50;172008;28;748;-69
2022/05/27 00:03:06;;;;;;;6.45;3.05;;;;;;;14.51;82.72;101800.53;172071;28;843;-69
2022/05/27 00:03:12;;;;;;;6.53;3.03;;;;;;;14.55;82.91;101796.84;172028;28;1018;-69
2022/05/27 00:03:18;;;;;;;6.43;3.03;;;;;;;14.58;82.31;101799.34;172084;28;867;-70
2022/05/27 00:03:23;;;;;;;6.30;2.90;;;;;;;14.60;82.16;101794.88;171997;28;1134;-69
2022/05/27 00:03:29;;;;;;;6.53;2.97;;;;;;;14.61;82.32;101799.19;172508;28;911;-68
2022/05/27 00:03:35;;;;;;;6.38;3.00;;;;;;;14.64;82.11;101798.19;172639;28;795;-69
2022/05/27 00:03:41;;;;;;;6.50;2.90;;;;;;;14.65;81.98;101798.13;172697;28;1042;-70
2022/05/27 00:03:47;;;;;;;6.38;2.83;;;;;;;14.66;81.96;101797.22;172661;28;1025;-69
2022/05/27 00:03:56;;;;;;;6.15;2.88;;;;;;;14.68;81.93;101798.00;172672;28;966;-69
2022/05/27 00:04:03;;;;;;;6.30;2.83;;;;;;;14.72;81.79;101803.13;171927;28;1218;-69
2022/05/27 00:04:09;;;;;;;6.60;2.87;;;;;;;14.71;81.74;101797.00;171959;28;982;-69
2022/05/27 00:04:14;;;;;;;6.23;2.90;;;;;;;14.67;81.77;101798.94;172036;28;904;-70
2022/05/27 00:04:20;;;;;;;6.50;2.90;;;;;;;14.68;81.63;101805.88;172031;28;1022;-69
2022/05/27 00:04:26;;;;;;;6.34;2.90;;;;;;;14.71;81.85;101807.50;172026;28;899;-69
2022/05/27 00:04:32;;;;;;;5.67;2.87;;;;;;;14.60;82.19;101800.13;172039;28;884;-69
2022/05/27 00:04:37;;;;;;;5.80;2.80;;;;;;;14.55;82.12;101791.59;171988;28;1034;-69
2022/05/27 00:04:43;;;;;;;5.80;2.70;;;;;;;14.41;82.32;101784.34;172013;28;935;-68
2022/05/27 00:04:48;;;;;;;5.45;2.70;;;;;;;14.32;83.10;101789.97;172086;28;1050;-68
2022/05/27 00:04:53;;;;;;;5.30;2.60;;;;;;;14.25;83.18;101795.50;171988;28;1026;-69
2022/05/27 00:05:00;;;;;;;6.20;2.67;;;;;;;14.25;83.23;101794.63;172028;28;844;-69
2022/05/27 00:05:07;;;;;;;6.70;2.70;;;;;;;14.25;83.39;101799.88;172022;28;958;-69
2022/05/27 00:05:12;;;;;;;6.63;2.72;;;;;;;14.27;83.36;101796.25;172023;28;1234;-70
2022/05/27 00:05:19;;;;;;;6.90;2.80;;;;;;;14.31;83.40;101798.75;172054;28;887;-70
2022/05/27 00:05:24;;;;;;;6.92;2.82;;;;;;;14.36;83.05;101800.28;172034;28;880;-69
2022/05/27 00:05:30;;;;;;;6.45;2.85;;;;;;;14.40;82.78;101793.97;172013;28;942;-69
2022/05/27 00:05:35;;;;;;;6.20;2.87;;;;;;;14.41;82.72;101795.66;172016;28;989;-69
2022/05/27 00:05:41;;;;;;;5.77;2.80;;;;;;;14.45;82.84;101800.78;171245;28;868;-69
2022/05/27 00:05:51;;;;;;;5.60;2.70;;;;;;;14.52;82.43;101791.72;171271;28;2326;-70
2022/05/27 00:05:56;;;;;;;5.83;2.66;;;;;;;14.56;82.32;101795.94;171324;28;1050;-69
2022/05/27 00:06:03;;;;;;;4.97;2.50;;;;;;;14.59;82.02;101792.31;171830;28;1074;-70
2022/05/27 00:06:08;;;;;;;5.38;2.66;;;;;;;14.62;82.08;101797.44;172011;28;1054;-70
2022/05/27 00:06:15;;;;;;;5.90;2.77;;;;;;;14.60;82.00;101797.50;172003;28;856;-71
2022/05/27 00:06:21;;;;;;;5.68;2.78;;;;;;;14.53;82.42;101798.69;172052;28;1042;-70
2022/05/27 00:06:28;;;;;;;5.68;2.72;;;;;;;14.49;82.38;101791.84;172009;28;1160;-69
2022/05/27 00:06:34;;;;;;;6.34;2.84;;;;;;;14.46;82.80;101798.09;172013;28;884;-69
2022/05/27 00:06:39;;;;;;;5.57;2.77;;;;;;;14.49;82.71;101794.47;172004;28;903;-69
2022/05/27 00:06:45;;;;;;;6.83;2.80;;;;;;;14.51;82.48;101800.53;171992;28;864;-69
2022/05/27 00:06:50;;;;;;;6.43;2.80;;;;;;;14.54;82.40;101800.38;172065;28;864;-69
2022/05/27 00:06:55;;;;;;;6.03;2.77;;;;;;;14.57;82.43;101799.41;172016;28;919;-70
2022/05/27 00:07:01;;;;;;;5.95;2.65;;;;;;;14.58;82.48;101794.09;172003;28;1042;-70
2022/05/27 00:07:07;;;;;;;5.90;2.73;;;;;;;14.58;82.60;101796.72;171932;28;740;-69
2022/05/27 00:07:12;;;;;;;6.47;2.90;;;;;;;14.59;82.52;101793.16;171995;28;832;-69
2022/05/27 00:07:17;;;;;;;6.40;2.90;;;;;;;14.57;82.43;101800.25;172017;28;943;-69
2022/05/27 00:07:23;;;;;;;7.05;3.00;;;;;;;14.52;82.63;101799.59;172049;28;1089;-69
2022/05/27 00:07:28;;;;;;;7.03;3.00;;;;;;;14.48;82.63;101795.41;172019;28;911;-69
2022/05/27 00:07:34;;;;;;;8.02;3.15;;;;;;;14.50;82.54;101794.41;171928;28;927;-69
2022/05/27 00:07:39;;;;;;;7.90;3.10;;;;;;;14.52;82.35;101791.72;172339;28;895;-69
2022/05/27 00:07:45;;;;;;;6.53;2.97;;;;;;;14.53;82.50;101796.06;172684;28;1042;-70
2022/05/27 00:07:50;;;;;;;6.33;2.93;;;;;;;14.55;82.35;101794.22;172695;28;1148;-69
2022/05/27 00:07:56;;;;;;;7.28;3.00;;;;;;;14.59;82.26;101800.19;172666;28;970;-69
2022/05/27 00:08:01;;;;;;;7.17;3.00;;;;;;;14.61;82.06;101799.19;171886;28;1283;-69
2022/05/27 00:08:08;;;;;;;6.20;2.72;;;;;;;14.65;82.19;101800.75;172019;28;1017;-69
2022/05/27 00:08:14;;;;;;;6.88;2.70;;;;;;;14.67;81.53;101793.69;172032;28;907;-69
2022/05/27 00:08:19;;;;;;;7.30;2.70;;;;;;;14.62;82.02;101793.03;172046;28;1089;-69
2022/05/27 00:08:25;;;;;;;7.53;2.70;;;;;;;14.58;82.28;101795.88;172003;28;899;-69
2022/05/27 00:08:31;;;;;;;6.92;2.60;;;;;;;14.54;82.32;101789.88;172038;28;1286;-69
2022/05/27 00:08:36;;;;;;;6.87;2.70;;;;;;;14.49;82.60;101792.72;172031;28;1030;-69
2022/05/27 00:08:42;;;;;;;6.53;2.70;;;;;;;14.46;82.87;101789.34;171979;28;1022;-69
2022/05/27 00:08:48;;;;;;;6.27;2.70;;;;;;;14.44;83.13;101783.34;172012;28;911;-68
2022/05/27 00:08:54;;;;;;;5.33;2.60;;;;;;;14.44;82.87;101796.47;172050;28;1061;-68
2022/05/27 00:09:00;;;;;;;5.18;2.60;;;;;;;14.47;82.89;101798.97;171999;28;1156;-68
2022/05/27 00:09:05;;;;;;;5.33;2.63;;;;;;;14.47;82.88;101793.72;171640;28;1010;-69
2022/05/27 00:09:10;;;;;;;5.20;2.67;;;;;;;14.50;82.76;101793.56;171344;28;920;-69
2022/05/27 00:09:16;;;;;;;5.43;2.60;;;;;;;14.54;82.55;101792.50;171335;28;1113;-68
2022/05/27 00:09:23;;;;;;;5.83;2.60;;;;;;;14.51;82.82;101801.38;171395;28;1168;-69
2022/05/27 00:09:28;;;;;;;5.60;2.50;;;;;;;14.54;82.57;101792.50;171392;28;900;-71
2022/05/27 00:09:33;;;;;;;5.33;2.50;;;;;;;14.55;82.49;101783.72;171805;28;1340;-69
2022/05/27 00:09:39;;;;;;;6.00;2.58;;;;;;;14.52;82.57;101789.09;172013;28;836;-69
2022/05/27 00:09:44;;;;;;;6.17;2.70;;;;;;;14.51;82.48;101792.66;172033;28;829;-70
2022/05/27 00:09:49;;;;;;;6.65;2.88;;;;;;;14.47;82.56;101789.28;172045;28;919;-70
2022/05/27 00:09:55;;;;;;;7.07;3.00;;;;;;;14.50;82.50;101793.56;171892;28;1002;-69
2022/05/27 00:10:01;;;;;;;7.43;3.00;;;;;;;14.49;82.54;101791.84;172397;28;1069;-70
2022/05/27 00:10:08;;;;;;;7.22;3.00;;;;;;;14.48;82.50;101788.41;172677;28;867;-70
2022/05/27 00:10:14;;;;;;;7.48;3.00;;;;;;;14.52;82.46;101786.47;171900;28;2594;-70
2022/05/27 00:10:20;;;;;;;7.40;2.90;;;;;;;14.53;82.68;101793.44;172038;28;1358;-69
2022/05/27 00:10:25;;;;;;;6.47;2.87;;;;;;;14.53;82.36;101790.81;172026;28;1013;-69
2022/05/27 00:10:31;;;;;;;6.35;2.90;;;;;;;14.54;82.39;101788.09;172010;28;978;-69
2022/05/27 00:10:37;;;;;;;6.53;2.90;;;;;;;14.56;82.19;101788.03;172006;28;1089;-69
2022/05/27 00:10:43;;;;;;;5.50;2.77;;;;;;;14.48;82.46;101792.78;172007;28;955;-70
2022/05/27 00:10:49;;;;;;;4.90;2.70;;;;;;;14.51;82.71;101784.78;172005;28;864;-70
2022/05/27 00:10:59;;;;;;;5.55;2.78;;;;;;;14.49;82.51;101786.59;172004;28;990;-69
2022/05/27 00:11:06;;;;;;;5.89;2.86;;;;;;;14.51;82.45;101790.03;172026;28;1140;-69
2022/05/27 00:11:12;;;;;;;6.60;3.03;;;;;;;14.53;82.70;101793.44;172040;28;2027;-68
2022/05/27 00:11:18;;;;;;;6.93;3.15;;;;;;;14.53;82.48;101796.91;172016;28;974;-68
2022/05/27 00:11:24;;;;;;;6.93;3.13;;;;;;;14.56;82.42;101795.94;172048;28;1010;-69
2022/05/27 00:11:30;;;;;;;7.16;3.06;;;;;;;14.49;82.91;101791.84;172016;28;970;-69
2022/05/27 00:11:35;;;;;;;6.18;2.95;;;;;;;14.40;83.02;101788.72;172036;28;906;-71
2022/05/27 00:11:41;;;;;;;5.33;2.80;;;;;;;14.39;83.02;101792.28;172055;28;832;-69
2022/05/27 00:11:46;;;;;;;5.38;2.80;;;;;;;14.37;83.38;101794.09;172020;28;1097;-69
2022/05/27 00:11:52;;;;;;;5.10;2.77;;;;;;;14.39;83.21;101786.16;172035;28;880;-70
2022/05/27 00:11:57;;;;;;;4.47;2.73;;;;;;;14.42;83.17;101786.88;172005;28;904;-69
2022/05/27 00:12:03;;;;;;;5.20;2.90;;;;;;;14.46;82.90;101792.84;171973;28;1034;-69
2022/05/27 00:12:09;;;;;;;5.63;2.90;;;;;;;14.49;82.74;101789.22;172005;28;1078;-68
2022/05/27 00:12:14;;;;;;;5.50;2.75;;;;;;;14.51;82.81;101784.78;172064;28;1018;-68
2022/05/27 00:12:20;;;;;;;5.07;2.70;;;;;;;14.55;82.42;101791.59;172107;28;902;-68
2022/05/27 00:12:26;;;;;;;6.00;2.80;;;;;;;14.56;82.30;101788.03;172098;28;932;-69
2022/05/27 00:12:32;;;;;;;5.93;2.70;;;;;;;14.58;82.46;101780.09;172054;28;915;-69
2022/05/27 00:12:38;;;;;;;6.10;2.60;;;;;;;14.60;82.17;101786.97;172093;28;1070;-69
2022/05/27 00:12:44;;;;;;;6.63;2.75;;;;;;;14.63;82.05;101791.25;171926;28;2466;-69
2022/05/27 00:12:49;;;;;;;7.50;2.80;;;;;;;14.59;82.22;101787.91;171967;28;994;-68
2022/05/27 00:12:55;;;;;;;8.33;2.80;;;;;;;14.59;82.42;101792.31;172009;28;1092;-68
2022/05/27 00:13:00;;;;;;;8.40;2.80;;;;;;;14.53;82.55;101793.44;172021;28;1261;-68
2022/05/27 00:13:07;;;;;;;8.15;2.80;;;;;;;14.51;82.71;101788.25;172007;28;1014;-68
2022/05/27 00:13:12;;;;;;;7.64;2.84;;;;;;;14.53;82.67;101788.19;172000;28;1340;-68
2022/05/27 00:13:18;;;;;;;7.33;2.80;;;;;;;14.46;82.77;101784.09;171935;28;1906;-69
2022/05/27 00:13:23;;;;;;;6.60;2.83;;;;;;;14.44;82.74;101783.34;172048;28;864;-69
2022/05/27 00:13:29;;;;;;;6.53;2.83;;;;;;;14.47;82.66;101783.22;172031;28;923;-69
2022/05/27 00:13:36;;;;;;;6.78;2.85;;;;;;;14.47;82.63;101788.47;172009;28;989;-69
2022/05/27 00:13:42;;;;;;;6.83;2.80;;;;;;;14.45;82.65;101785.91;172044;28;1321;-70
2022/05/27 00:13:47;;;;;;;8.20;2.88;;;;;;;14.47;82.78;101788.47;172020;28;1030;-68
2022/05/27 00:13:53;;;;;;;8.77;2.97;;;;;;;14.51;82.56;101790.03;172073;28;1139;-69
2022/05/27 00:13:59;;;;;;;8.55;3.00;;;;;;;14.53;82.43;101794.28;171995;28;1113;-70
2022/05/27 00:14:05;;;;;;;8.30;3.00;;;;;;;14.52;82.63;101792.59;171974;28;860;-69
2022/05/27 00:14:10;;;;;;;8.25;3.00;;;;;;;14.47;82.94;101788.47;171957;28;1026;-70
2022/05/27 00:14:16;;;;;;;7.43;2.87;;;;;;;14.48;82.56;101796.28;171998;28;1038;-69
2022/05/27 00:14:21;;;;;;;7.10;2.80;;;;;;;14.49;82.82;101791.84;172016;28;1454;-68
2022/05/27 00:14:27;;;;;;;7.40;2.80;;;;;;;14.47;82.88;101783.22;171995;28;1033;-69
2022/05/27 00:14:32;;;;;;;7.40;2.83;;;;;;;14.48;82.84;101788.41;172038;28;852;-69
2022/05/27 00:14:38;;;;;;;8.00;2.93;;;;;;;14.51;82.87;101790.03;172016;28;980;-69
2022/05/27 00:14:43;;;;;;;7.82;3.00;;;;;;;14.52;82.69;101786.47;172471;28;922;-69
2022/05/27 00:14:49;;;;;;;7.03;3.03;;;;;;;14.47;82.70;101783.22;172287;28;915;-70
2022/05/27 00:14:54;;;;;;;6.33;3.00;;;;;;;14.44;82.90;101785.97;172097;28;1068;-70
2022/05/27 00:15:00;;;;;;;6.20;2.97;;;;;;;14.40;83.16;101788.72;172093;28;852;-69
2022/05/27 00:15:08;;;;;;;6.00;2.83;;;;;;;14.41;83.00;101785.16;172086;28;978;-69
2022/05/27 00:15:14;;;;;;;5.83;2.87;;;;;;;14.41;83.51;101787.78;172096;28;907;-68
2022/05/27 00:15:20;;;;;;;5.78;2.83;;;;;;;14.39;83.54;101792.28;172085;28;923;-69
2022/05/27 00:15:26;;;;;;;5.47;2.80;;;;;;;14.37;83.51;101788.00;172079;28;986;-69
2022/05/27 00:15:31;;;;;;;5.28;2.80;;;;;;;14.35;83.53;101780.19;172048;28;915;-70
2022/05/27 00:15:36;;;;;;;5.27;2.80;;;;;;;14.32;83.42;101784.72;172581;28;959;-69
2022/05/27 00:15:42;;;;;;;5.63;2.77;;;;;;;14.36;83.35;101794.16;172710;28;1018;-69
2022/05/27 00:15:48;;;;;;;5.53;2.80;;;;;;;14.38;83.35;101787.94;172627;28;765;-69
2022/05/27 00:15:54;;;;;;;5.28;2.75;;;;;;;14.36;83.33;101781.91;172715;28;1127;-71
2022/05/27 00:15:59;;;;;;;5.18;2.78;;;;;;;14.35;83.49;101784.59;172681;28;947;-71
2022/05/27 00:16:05;;;;;;;5.20;2.80;;;;;;;14.32;83.75;101788.19;172673;28;975;-72
2022/05/27 00:16:11;;;;;;;4.78;2.80;;;;;;;14.29;83.80;101785.69;172631;28;860;-69
2022/05/27 00:16:18;;;;;;;4.87;2.70;;;;;;;14.29;83.71;101791.81;172712;28;943;-69
2022/05/27 00:16:23;;;;;;;5.63;2.80;;;;;;;14.33;83.56;101787.28;172703;28;950;-69
2022/05/27 00:16:29;;;;;;;6.07;2.80;;;;;;;14.34;83.80;101794.22;172686;28;844;-69
2022/05/27 00:16:34;;;;;;;5.97;2.80;;;;;;;14.36;83.52;101789.78;172625;28;1033;-68
2022/05/27 00:16:39;;;;;;;6.20;2.83;;;;;;;14.41;83.32;101789.59;172706;28;906;-68
2022/05/27 00:16:45;;;;;;;6.20;2.90;;;;;;;14.45;82.96;101790.28;173277;28;1407;-68
2022/05/27 00:16:50;;;;;;;6.00;2.90;;;;;;;14.48;83.12;101787.53;173370;28;1228;-69
2022/05/27 00:16:55;;;;;;;5.73;2.90;;;;;;;14.50;82.95;101793.56;173367;28;931;-69
2022/05/27 00:17:01;;;;;;;7.07;2.97;;;;;;;14.49;82.92;101787.47;172585;28;780;-69
2022/05/27 00:17:06;;;;;;;8.02;3.05;;;;;;;14.54;82.96;101789.88;172605;28;1034;-68
2022/05/27 00:17:11;;;;;;;8.67;2.93;;;;;;;14.56;82.64;101782.78;172622;28;1184;-68
2022/05/27 00:17:17;;;;;;;9.77;3.10;;;;;;;14.59;82.53;101792.31;172590;28;896;-69
2022/05/27 00:17:23;;;;;;;10.63;3.10;;;;;;;14.53;82.78;101782.91;172613;28;847;-70
2022/05/27 00:17:28;;;;;;;10.05;3.10;;;;;;;14.46;82.86;101781.47;172560;28;990;-71
2022/05/27 00:17:33;;;;;;;9.07;3.03;;;;;;;14.46;83.11;101781.47;172488;28;1535;-69
2022/05/27 00:17:39;;;;;;;8.05;3.00;;;;;;;14.47;83.04;101781.41;172600;28;1089;-69
2022/05/27 00:17:44;;;;;;;7.70;2.97;;;;;;;14.47;82.93;101784.03;172571;28;1077;-69
2022/05/27 00:17:49;;;;;;;6.90;2.93;;;;;;;14.45;83.17;101788.53;172579;28;1479;-69
2022/05/27 00:17:55;;;;;;;7.43;2.85;;;;;;;14.49;83.08;101783.97;172778;28;915;-68
2022/05/27 00:18:01;;;;;;;7.97;2.90;;;;;;;14.54;82.62;101789.88;172631;28;844;-68
2022/05/27 00:18:06;;;;;;;8.73;2.97;;;;;;;14.53;82.67;101785.56;172672;28;1030;-68
2022/05/27 00:18:12;;;;;;;8.52;2.92;;;;;;;14.49;82.65;101787.47;172634;28;871;-70
2022/05/27 00:18:18;;;;;;;8.30;2.90;;;;;;;14.53;82.77;101785.56;172634;28;923;-69
2022/05/27 00:18:23;;;;;;;8.23;2.90;;;;;;;14.55;82.37;101783.72;172744;28;946;-69
2022/05/27 00:18:29;;;;;;;7.17;2.83;;;;;;;14.59;82.59;101792.31;172669;28;902;-69
2022/05/27 00:18:34;;;;;;;6.88;2.80;;;;;;;14.63;82.09;101788.63;172680;28;997;-69
2022/05/27 00:18:40;;;;;;;6.75;2.80;;;;;;;14.65;82.14;101786.78;172671;28;1104;-68
2022/05/27 00:18:46;;;;;;;6.13;2.80;;;;;;;14.67;81.87;101784.94;172067;28;848;-69
2022/05/27 00:18:51;;;;;;;5.50;2.72;;;;;;;14.67;81.91;101783.16;172034;28;1018;-69
2022/05/27 00:18:58;;;;;;;5.47;2.70;;;;;;;14.59;82.16;101787.91;171976;28;1002;-69
2022/05/27 00:19:03;;;;;;;5.68;2.70;;;;;;;14.54;82.46;101789.88;172665;28;989;-68
2022/05/27 00:19:09;;;;;;;5.38;2.58;;;;;;;14.51;82.60;101784.78;172695;28;860;-69
2022/05/27 00:19:16;;;;;;;5.50;2.60;;;;;;;14.55;82.64;101788.97;171916;28;1371;-69
2022/05/27 00:19:21;;;;;;;6.00;2.70;;;;;;;14.58;82.30;101786.22;172016;28;943;-69
2022/05/27 00:19:27;;;;;;;7.53;2.90;;;;;;;14.49;82.84;101781.34;172023;28;1030;-71
2022/05/27 00:19:32;;;;;;;7.10;2.83;;;;;;;14.46;82.70;101781.47;171701;28;812;-70
2022/05/27 00:19:37;;;;;;;7.47;2.93;;;;;;;14.44;82.84;101785.97;171353;28;919;-70
2022/05/27 00:19:43;;;;;;;7.72;3.00;;;;;;;14.45;82.93;101788.53;171325;28;1343;-69
2022/05/27 00:19:48;;;;;;;7.77;3.00;;;;;;;14.42;83.07;101789.53;171331;28;967;-69
2022/05/27 00:19:54;;;;;;;7.85;2.88;;;;;;;14.44;83.08;101788.59;171341;28;978;-69
2022/05/27 00:19:59;;;;;;;7.27;2.80;;;;;;;14.39;83.20;101784.41;171696;28;836;-69
2022/05/27 00:20:05;;;;;;;7.23;2.77;;;;;;;14.36;83.52;101789.78;172007;28;1077;-68
2022/05/27 00:20:11;;;;;;;6.63;2.60;;;;;;;14.37;83.17;101783.59;172061;28;883;-68
2022/05/27 00:20:17;;;;;;;6.43;2.60;;;;;;;14.37;83.21;101783.59;172020;28;1042;-68
2022/05/27 00:20:23;;;;;;;6.30;2.55;;;;;;;14.45;83.03;101788.53;172017;28;927;-69
2022/05/27 00:20:28;;;;;;;5.90;2.60;;;;;;;14.51;82.86;101790.03;172003;28;1066;-69
2022/05/27 00:20:36;;;;;;;6.05;2.60;;;;;;;14.51;82.89;101785.63;171972;28;1113;-69
2022/05/27 00:20:41;;;;;;;6.40;2.70;;;;;;;14.50;82.73;101788.31;172027;28;979;-69
2022/05/27 00:20:47;;;;;;;6.90;2.83;;;;;;;14.51;82.95;101782.16;172018;28;923;-71
2022/05/27 00:20:53;;;;;;;7.00;2.80;;;;;;;14.50;82.79;101780.44;172066;28;848;-69
2022/05/27 00:21:01;;;;;;;7.00;2.77;;;;;;;14.51;82.68;101776.91;171997;28;1118;-70
2022/05/27 00:21:07;;;;;;;6.75;2.73;;;;;;;14.53;82.59;101785.56;171989;28;1066;-69
2022/05/27 00:21:14;;;;;;;6.16;2.74;;;;;;;14.55;82.46;101781.09;171868;28;1179;-68
2022/05/27 00:21:19;;;;;;;6.30;2.67;;;;;;;14.57;82.40;101784.50;172069;28;1073;-70
2022/05/27 00:21:26;;;;;;;6.30;2.78;;;;;;;14.59;82.22;101785.28;171211;28;1421;-69
2022/05/27 00:21:31;;;;;;;6.13;2.80;;;;;;;14.61;82.17;101786.06;171049;28;1353;-69
2022/05/27 00:21:37;;;;;;;6.05;2.75;;;;;;;14.64;82.35;101785.94;171963;28;1300;-69
2022/05/27 00:21:42;;;;;;;7.13;2.67;;;;;;;14.65;81.96;101781.53;172032;28;1227;-69
2022/05/27 00:21:47;;;;;;;6.53;2.70;;;;;;;14.60;82.09;101789.63;172017;28;1050;-69
2022/05/27 00:21:53;;;;;;;5.97;2.60;;;;;;;14.56;82.26;101785.41;172046;28;1026;-69
2022/05/27 00:21:58;;;;;;;6.13;2.60;;;;;;;14.57;82.25;101786.28;172031;28;923;-70
2022/05/27 00:22:04;;;;;;;6.00;2.60;;;;;;;14.56;82.37;101780.16;172019;28;904;-69
2022/05/27 00:22:09;;;;;;;5.97;2.60;;;;;;;14.56;82.33;101782.78;172006;28;852;-70
2022/05/27 00:22:15;;;;;;;5.50;2.60;;;;;;;14.60;82.14;101786.97;172025;28;880;-69
2022/05/27 00:22:20;;;;;;;5.45;2.67;;;;;;;14.55;82.46;101776.69;171998;28;965;-69
2022/05/27 00:22:26;;;;;;;5.45;2.70;;;;;;;14.53;82.39;101788.19;171890;28;868;-69
2022/05/27 00:22:31;;;;;;;5.63;2.73;;;;;;;14.54;82.37;101795.13;172011;28;935;-70
2022/05/27 00:22:37;;;;;;;5.95;2.80;;;;;;;14.50;82.63;101789.16;171973;28;1089;-69
2022/05/27 00:22:43;;;;;;;6.57;2.90;;;;;;;14.49;82.54;101784.84;172013;28;836;-68
2022/05/27 00:22:48;;;;;;;8.02;2.85;;;;;;;14.52;82.84;101778.59;171967;28;864;-69
2022/05/27 00:22:54;;;;;;;7.95;2.83;;;;;;;14.55;82.63;101778.47;172024;28;1018;-69
2022/05/27 00:23:00;;;;;;;8.43;2.80;;;;;;;14.55;82.70;101771.41;172024;28;1077;-69
2022/05/27 00:23:06;;;;;;;8.57;2.85;;;;;;;14.56;82.62;101788.03;172019;28;1215;-68
2022/05/27 00:23:12;;;;;;;8.30;2.94;;;;;;;14.59;82.58;101782.66;171343;28;895;-70
2022/05/27 00:23:19;;;;;;;6.90;2.97;;;;;;;14.60;82.54;101784.34;171326;28;836;-69
2022/05/27 00:23:25;;;;;;;8.23;3.10;;;;;;;14.60;82.33;101783.50;171819;28;958;-69
2022/05/27 00:23:31;;;;;;;7.40;3.10;;;;;;;14.62;82.40;101786.91;172013;28;1148;-68
2022/05/27 00:23:39;;;;;;;6.77;2.97;;;;;;;14.64;82.16;101783.31;172005;28;872;-69
2022/05/27 00:23:45;;;;;;;6.48;2.83;;;;;;;14.68;82.13;101786.66;171940;28;1251;-69
2022/05/27 00:23:51;;;;;;;5.63;2.80;;;;;;;14.66;82.53;101786.72;172020;28;872;-69
2022/05/27 00:23:56;;;;;;;5.63;2.70;;;;;;;14.57;82.45;101784.50;172002;28;935;-70
2022/05/27 00:24:03;;;;;;;5.70;2.80;;;;;;;14.54;82.77;101784.63;171999;28;836;-70
2022/05/27 00:24:08;;;;;;;5.97;2.83;;;;;;;14.53;82.70;101789.03;171977;28;903;-69
2022/05/27 00:24:13;;;;;;;6.22;2.90;;;;;;;14.50;82.79;101775.16;172679;28;979;-69
2022/05/27 00:24:19;;;;;;;6.40;2.90;;;;;;;14.51;82.85;101777.72;172668;28;1081;-71
2022/05/27 00:24:24;;;;;;;5.73;2.90;;;;;;;14.53;82.77;101782.91;172731;28;1351;-70
2022/05/27 00:24:29;;;;;;;5.85;3.00;;;;;;;14.54;82.61;101774.13;172636;28;974;-69
2022/05/27 00:24:36;;;;;;;5.70;3.00;;;;;;;14.60;82.57;101783.50;172616;28;1092;-69
2022/05/27 00:24:41;;;;;;;5.28;2.90;;;;;;;14.59;82.36;101777.41;172675;28;1225;-69
2022/05/27 00:24:46;;;;;;;5.15;2.95;;;;;;;14.53;82.36;101777.66;171932;28;904;-70
2022/05/27 00:24:52;;;;;;;5.43;2.93;;;;;;;14.52;82.41;101783.84;172018;28;1034;-69
2022/05/27 00:24:57;;;;;;;5.27;2.90;;;;;;;14.53;82.60;101780.28;171999;28;1030;-69
2022/05/27 00:25:03;;;;;;;5.53;2.90;;;;;;;14.53;82.67;101782.91;171984;28;1028;-69
2022/05/27 00:25:09;;;;;;;5.93;2.88;;;;;;;14.53;82.75;101782.91;172131;28;1050;-69
2022/05/27 00:25:15;;;;;;;5.63;2.77;;;;;;;14.47;83.01;101775.34;172695;28;946;-69
2022/05/27 00:25:20;;;;;;;5.85;2.70;;;;;;;14.47;82.88;101784.03;172666;28;1077;-69
2022/05/27 00:25:26;;;;;;;6.63;2.80;;;;;;;14.51;82.63;101779.53;172754;28;859;-69
2022/05/27 00:25:31;;;;;;;6.97;2.80;;;;;;;14.53;82.75;101778.53;172692;28;1105;-70
2022/05/27 00:25:36;;;;;;;7.07;2.78;;;;;;;14.55;82.79;101783.72;172679;28;1074;-69
2022/05/27 00:25:42;;;;;;;6.97;2.73;;;;;;;14.56;82.75;101782.78;172672;28;1090;-69
2022/05/27 00:25:47;;;;;;;7.57;2.80;;;;;;;14.54;82.61;101779.38;171898;28;1062;-69
2022/05/27 00:25:53;;;;;;;7.03;2.77;;;;;;;14.57;82.59;101779.22;172058;28;1023;-69
2022/05/27 00:25:58;;;;;;;6.43;2.70;;;;;;;14.57;82.59;101779.22;172012;28;1042;-69
2022/05/27 00:26:04;;;;;;;5.57;2.80;;;;;;;14.51;83.05;101776.91;172002;28;895;-69
2022/05/27 00:26:09;;;;;;;6.13;2.88;;;;;;;14.49;83.14;101776.09;171977;28;891;-69
2022/05/27 00:26:15;;;;;;;6.23;2.93;;;;;;;14.50;82.93;101776.03;171329;28;1252;-69
2022/05/27 00:26:20;;;;;;;5.75;2.97;;;;;;;14.51;83.03;101776.91;171332;28;1047;-70
2022/05/27 00:26:26;;;;;;;6.27;3.13;;;;;;;14.50;82.94;101777.78;171357;28;919;-69
2022/05/27 00:26:32;;;;;;;6.75;3.05;;;;;;;14.54;82.61;101774.97;170612;29;1051;-69
2022/05/27 00:26:37;;;;;;;6.53;3.00;;;;;;;14.57;82.60;101779.22;170658;29;1301;-68
2022/05/27 00:26:43;;;;;;;6.28;3.00;;;;;;;14.58;82.59;101780.09;170656;28;868;-69
2022/05/27 00:26:48;;;;;;;6.37;2.90;;;;;;;14.59;82.57;101774.78;171332;28;1139;-70
2022/05/27 00:26:53;;;;;;;7.32;2.92;;;;;;;14.58;82.76;101777.47;171374;28;974;-70
2022/05/27 00:27:01;;;;;;;7.10;2.80;;;;;;;14.57;82.67;101784.50;171342;28;840;-69
2022/05/27 00:27:08;;;;;;;7.24;2.86;;;;;;;14.59;82.35;101777.41;171341;28;919;-69
2022/05/27 00:27:14;;;;;;;7.57;2.77;;;;;;;14.59;82.47;101772.16;171327;28;972;-69
2022/05/27 00:27:19;;;;;;;8.07;2.73;;;;;;;14.60;82.34;101779.09;171357;28;966;-69
2022/05/27 00:27:25;;;;;;;8.57;2.77;;;;;;;14.60;82.48;101788.75;171392;28;896;-69
2022/05/27 00:27:30;;;;;;;8.32;2.70;;;;;;;14.60;82.61;101783.50;171314;28;856;-69
2022/05/27 00:27:35;;;;;;;8.27;2.70;;;;;;;14.62;82.57;101782.53;171363;28;1140;-68
2022/05/27 00:27:41;;;;;;;8.27;2.70;;;;;;;14.60;82.58;101780.88;171382;28;899;-69
2022/05/27 00:27:46;;;;;;;7.50;2.80;;;;;;;14.61;82.32;101772.91;171675;28;1018;-69
2022/05/27 00:27:51;;;;;;;8.50;2.80;;;;;;;14.63;82.46;101768.47;172009;28;919;-69
2022/05/27 00:27:57;;;;;;;7.97;2.77;;;;;;;14.64;82.21;101770.16;171918;28;875;-70
2022/05/27 00:28:03;;;;;;;8.48;2.80;;;;;;;14.64;82.16;101779.81;171987;28;860;-69